createdAt,value
2016-09-12T00:00:01.497Z,73.46
2016-09-12T00:00:42.364Z,73.65
2016-09-12T00:01:23.169Z,73.94
2016-09-12T00:02:03.921Z,73.07
2016-09-12T00:02:44.798Z,73.94
2016-09-12T00:03:25.609Z,73.74
2016-09-12T00:04:06.433Z,74.13
2016-09-12T00:04:47.202Z,74.04
2016-09-12T00:05:28.081Z,73.74
2016-09-12T00:06:08.795Z,73.94
2016-09-12T00:06:49.512Z,73.84
2016-09-12T00:07:30.225Z,73.94
2016-09-12T00:08:10.977Z,73.84
2016-09-12T00:08:51.765Z,73.65
2016-09-12T00:09:32.586Z,73.46
2016-09-12T00:10:13.308Z,73.16
2016-09-12T00:10:54.049Z,73.55
2016-09-12T00:11:34.811Z,73.1
2016-09-12T00:12:15.566Z,73.46
2016-09-12T00:12:56.393Z,73.16
2016-09-12T00:13:37.194Z,73.65
2016-09-12T00:14:17.972Z,73.55
2016-09-12T00:14:58.725Z,73.55
2016-09-12T00:15:39.526Z,73.46
2016-09-12T00:16:20.388Z,73.74
2016-09-12T00:17:01.146Z,73.55
2016-09-12T00:17:41.914Z,73.07
2016-09-12T00:18:22.696Z,72.87
2016-09-12T00:19:03.465Z,73.74
2016-09-12T00:19:44.212Z,73.55
2016-09-12T00:20:24.965Z,73.46
2016-09-12T00:21:05.715Z,73.46
2016-09-12T00:21:46.459Z,73.94
2016-09-12T00:22:27.188Z,73.84
2016-09-12T00:23:07.921Z,73.94
2016-09-12T00:23:48.714Z,74.04
2016-09-12T00:24:29.503Z,74.04
2016-09-12T00:25:10.306Z,73.84
2016-09-12T00:25:51.190Z,73.74
2016-09-12T00:26:31.888Z,73.84
2016-09-12T00:27:12.611Z,74.04
2016-09-12T00:27:53.404Z,73.94
2016-09-12T00:28:34.136Z,73.65
2016-09-12T00:29:14.903Z,73.07
2016-09-12T00:29:55.638Z,73.55
2016-09-12T00:30:36.557Z,73.65
2016-09-12T00:31:17.301Z,73.65
2016-09-12T00:31:58.102Z,73.16
2016-09-12T00:32:38.857Z,73.26
2016-09-12T00:33:19.660Z,73.26
2016-09-12T00:34:00.423Z,73.84
2016-09-12T00:34:41.194Z,73.46
2016-09-12T00:35:22.448Z,73.65
2016-09-12T00:36:03.206Z,73.74
2016-09-12T00:36:43.992Z,73.74
2016-09-12T00:37:24.730Z,74.13
2016-09-12T00:38:05.497Z,73.94
2016-09-12T00:38:46.260Z,73.94
2016-09-12T00:39:26.967Z,73.55
2016-09-12T00:40:07.754Z,73.74
2016-09-12T00:40:48.918Z,73.46
2016-09-12T00:41:29.663Z,73.55
2016-09-12T00:42:10.458Z,74.13
2016-09-12T00:42:51.139Z,74.13
2016-09-12T00:43:31.905Z,74.04
2016-09-12T00:44:12.625Z,74.39
2016-09-12T00:44:53.387Z,74.52
2016-09-12T00:45:34.099Z,74.43
2016-09-12T00:46:14.827Z,74.04
2016-09-12T00:46:55.523Z,73.55
2016-09-12T00:47:36.281Z,73.65
2016-09-12T00:48:17.042Z,74
2016-09-12T00:48:57.806Z,73.65
2016-09-12T00:49:38.642Z,73.65
2016-09-12T00:50:19.406Z,73.74
2016-09-12T00:51:00.352Z,74.19
2016-09-12T00:51:40.942Z,74.13
2016-09-12T00:52:21.687Z,74.23
2016-09-12T00:53:02.456Z,73.74
2016-09-12T00:53:43.395Z,73.74
2016-09-12T00:54:24.109Z,73.55
2016-09-12T00:55:04.897Z,73.55
2016-09-12T00:55:45.622Z,73.65
2016-09-12T00:56:26.355Z,73.36
2016-09-12T00:57:07.121Z,73.74
2016-09-12T00:57:47.835Z,73.74
2016-09-12T00:58:28.676Z,73.94
2016-09-12T00:59:09.395Z,73.36
2016-09-12T00:59:50.091Z,73.46
2016-09-12T01:00:31.091Z,73.46
2016-09-12T01:01:11.739Z,73.36
2016-09-12T01:01:52.521Z,73.55
2016-09-12T01:02:33.240Z,73.46
2016-09-12T01:03:13.983Z,73.55
2016-09-12T01:03:54.781Z,73.84
2016-09-12T01:04:35.541Z,73.55
2016-09-12T01:05:16.289Z,73.16
2016-09-12T01:05:57.050Z,73.07
2016-09-12T01:06:37.822Z,73.74
2016-09-12T01:07:18.662Z,73.55
2016-09-12T01:07:59.412Z,73.55
2016-09-12T01:08:40.255Z,73.84
2016-09-12T01:09:21.007Z,73.46
2016-09-12T01:10:02.468Z,73.74
2016-09-12T01:10:42.592Z,73.46
2016-09-12T01:11:23.330Z,73.55
2016-09-12T01:12:04.076Z,73.74
2016-09-12T01:12:44.852Z,73.36
2016-09-12T01:13:25.585Z,73.46
2016-09-12T01:14:06.347Z,73.46
2016-09-12T01:14:47.055Z,73.07
2016-09-12T01:15:27.976Z,73.36
2016-09-12T01:16:08.742Z,73.65
2016-09-12T01:16:49.503Z,73.16
2016-09-12T01:17:30.473Z,73.74
2016-09-12T01:18:11.334Z,73.94
2016-09-12T01:18:51.976Z,73.94
2016-09-12T01:19:32.764Z,73.46
2016-09-12T01:20:13.580Z,73.74
2016-09-12T01:20:54.378Z,73.55
2016-09-12T01:21:35.197Z,73.84
2016-09-12T01:22:16.001Z,73.07
2016-09-12T01:22:56.731Z,73.07
2016-09-12T01:23:37.542Z,73.16
2016-09-12T01:24:18.315Z,73.16
2016-09-12T01:24:59.042Z,73.07
2016-09-12T01:25:39.795Z,73.07
2016-09-12T01:26:20.517Z,73.07
2016-09-12T01:27:01.378Z,73.2
2016-09-12T01:27:42.156Z,73.16
2016-09-12T01:28:22.970Z,73.16
2016-09-12T01:29:03.758Z,73.26
2016-09-12T01:29:44.542Z,73.2
2016-09-12T01:30:25.314Z,73.07
2016-09-12T01:31:06.472Z,72.97
2016-09-12T01:31:47.085Z,73.07
2016-09-12T01:32:28.035Z,73.16
2016-09-12T01:33:08.904Z,72.87
2016-09-12T01:33:49.620Z,73.07
2016-09-12T01:34:30.790Z,73.46
2016-09-12T01:35:11.338Z,73.36
2016-09-12T01:35:52.108Z,73.46
2016-09-12T01:36:32.841Z,73.07
2016-09-12T01:37:13.635Z,73.36
2016-09-12T01:37:54.362Z,73.16
2016-09-12T01:38:35.114Z,73.07
2016-09-12T01:39:15.870Z,73.46
2016-09-12T01:39:56.626Z,73.55
2016-09-12T01:40:37.380Z,72.97
2016-09-12T01:41:18.132Z,73.3
2016-09-12T01:41:58.929Z,72.91
2016-09-12T01:42:39.725Z,73.58
2016-09-12T01:43:20.576Z,73.2
2016-09-12T01:44:01.512Z,72.87
2016-09-12T01:44:42.094Z,73.1
2016-09-12T01:45:22.855Z,73
2016-09-12T01:46:03.661Z,73.49
2016-09-12T01:46:44.443Z,73.07
2016-09-12T01:47:25.182Z,73.07
2016-09-12T01:48:06.033Z,73.07
2016-09-12T01:48:46.830Z,73.65
2016-09-12T01:49:27.687Z,73.26
2016-09-12T01:50:08.455Z,73.78
2016-09-12T01:50:49.253Z,73.74
2016-09-12T01:51:30.030Z,73.2
2016-09-12T01:52:10.810Z,73.1
2016-09-12T01:52:51.750Z,73.65
2016-09-12T01:53:32.625Z,73.16
2016-09-12T01:54:13.374Z,73.65
2016-09-12T01:54:54.292Z,73.39
2016-09-12T01:55:34.943Z,73.49
2016-09-12T01:56:15.980Z,73.07
2016-09-12T01:56:56.740Z,73.2
2016-09-12T01:57:37.535Z,73.1
2016-09-12T01:58:18.311Z,73.1
2016-09-12T01:58:59.137Z,73.1
2016-09-12T01:59:39.962Z,73.1
2016-09-12T02:00:20.669Z,73.36
2016-09-12T02:01:01.379Z,73.2
2016-09-12T02:01:42.082Z,73.26
2016-09-12T02:02:22.949Z,73.1
2016-09-12T02:03:03.734Z,73.16
2016-09-12T02:03:44.445Z,73.39
2016-09-12T02:04:25.278Z,73.26
2016-09-12T02:05:06.058Z,73.07
2016-09-12T02:05:46.791Z,73.55
2016-09-12T02:06:27.590Z,73.55
2016-09-12T02:07:08.326Z,73.46
2016-09-12T02:07:49.114Z,73.46
2016-09-12T02:08:29.883Z,73.46
2016-09-12T02:09:10.832Z,73.74
2016-09-12T02:09:51.574Z,73.46
2016-09-12T02:10:32.939Z,73.16
2016-09-12T02:11:13.735Z,73.46
2016-09-12T02:11:54.536Z,73.46
2016-09-12T02:12:35.327Z,73.74
2016-09-12T02:13:16.058Z,73.65
2016-09-12T02:13:56.846Z,73.68
2016-09-12T02:14:37.599Z,73.58
2016-09-12T02:15:18.469Z,73.58
2016-09-12T02:15:59.193Z,73.55
2016-09-12T02:16:39.929Z,73.65
2016-09-12T02:17:20.718Z,74.13
2016-09-12T02:18:01.479Z,73.65
2016-09-12T02:18:42.414Z,74.13
2016-09-12T02:19:23.097Z,73.94
2016-09-12T02:20:03.859Z,74.13
2016-09-12T02:20:44.571Z,74.04
2016-09-12T02:21:25.311Z,74.04
2016-09-12T02:22:06.122Z,73.84
2016-09-12T02:22:47.042Z,73.74
2016-09-12T02:23:27.824Z,73.74
2016-09-12T02:24:08.526Z,73.84
2016-09-12T02:24:49.305Z,73.94
2016-09-12T02:25:30.106Z,73.94
2016-09-12T02:26:10.861Z,73.65
2016-09-12T02:26:51.653Z,73.46
2016-09-12T02:27:32.370Z,73.94
2016-09-12T02:28:13.163Z,73.84
2016-09-12T02:28:54.041Z,73.94
2016-09-12T02:29:34.768Z,73.26
2016-09-12T02:30:15.494Z,73.65
2016-09-12T02:30:56.240Z,73.3
2016-09-12T02:31:37.126Z,73.65
2016-09-12T02:32:17.899Z,73.74
2016-09-12T02:32:58.670Z,74.04
2016-09-12T02:33:39.468Z,74.04
2016-09-12T02:34:20.209Z,74.04
2016-09-12T02:35:00.954Z,73.65
2016-09-12T02:35:41.701Z,73.65
2016-09-12T02:36:22.461Z,73.46
2016-09-12T02:37:03.189Z,73.65
2016-09-12T02:37:44.024Z,73.74
2016-09-12T02:38:24.805Z,73.46
2016-09-12T02:39:05.591Z,73.65
2016-09-12T02:39:46.368Z,73.55
2016-09-12T02:40:27.764Z,73.55
2016-09-12T02:41:08.516Z,73.94
2016-09-12T02:41:49.244Z,74.04
2016-09-12T02:42:30.016Z,74.13
2016-09-12T02:43:10.826Z,73.94
2016-09-12T02:43:51.664Z,74.43
2016-09-12T02:44:32.460Z,74.52
2016-09-12T02:45:13.218Z,74.43
2016-09-12T02:45:53.929Z,74.43
2016-09-12T02:46:34.732Z,74.43
2016-09-12T02:47:15.490Z,74.52
2016-09-12T02:47:56.288Z,74.13
2016-09-12T02:48:37.061Z,74.52
2016-09-12T02:49:17.827Z,74.33
2016-09-12T02:49:58.581Z,74.13
2016-09-12T02:50:39.386Z,74.23
2016-09-12T02:51:20.143Z,74.13
2016-09-12T02:52:00.968Z,74.43
2016-09-12T02:52:41.743Z,74.23
2016-09-12T02:53:22.550Z,74.33
2016-09-12T02:54:03.605Z,74.23
2016-09-12T02:54:44.167Z,74.33
2016-09-12T02:55:24.944Z,74.43
2016-09-12T02:56:05.753Z,74.43
2016-09-12T02:56:46.505Z,74.52
2016-09-12T02:57:27.276Z,74.33
2016-09-12T02:58:08.009Z,74.04
2016-09-12T02:58:48.736Z,74.23
2016-09-12T02:59:29.493Z,74.13
2016-09-12T03:00:10.237Z,74.04
2016-09-12T03:00:51.016Z,73.94
2016-09-12T03:01:31.786Z,74.13
2016-09-12T03:02:12.547Z,73.74
2016-09-12T03:02:53.404Z,73.71
2016-09-12T03:03:34.146Z,74.13
2016-09-12T03:04:14.951Z,74.04
2016-09-12T03:04:55.734Z,73.9
2016-09-12T03:05:36.499Z,74.19
2016-09-12T03:06:17.295Z,74.1
2016-09-12T03:06:58.010Z,74
2016-09-12T03:07:38.737Z,73.61
2016-09-12T03:08:19.515Z,74.1
2016-09-12T03:09:00.343Z,73.61
2016-09-12T03:09:41.090Z,73.71
2016-09-12T03:10:23.168Z,74.1
2016-09-12T03:11:03.901Z,74.1
2016-09-12T03:11:44.612Z,73.71
2016-09-12T03:12:25.397Z,74.19
2016-09-12T03:13:06.141Z,74.1
2016-09-12T03:13:46.915Z,73.9
2016-09-12T03:14:27.957Z,74
2016-09-12T03:15:08.681Z,74.19
2016-09-12T03:15:49.462Z,73.9
2016-09-12T03:16:30.257Z,74.19
2016-09-12T03:17:11.010Z,74.1
2016-09-12T03:17:51.761Z,74
2016-09-12T03:18:32.552Z,74.29
2016-09-12T03:19:13.309Z,74.19
2016-09-12T03:19:54.083Z,74.19
2016-09-12T03:20:34.952Z,74.49
2016-09-12T03:21:15.700Z,74.29
2016-09-12T03:21:56.466Z,74.19
2016-09-12T03:22:37.219Z,73.8
2016-09-12T03:23:17.970Z,73.71
2016-09-12T03:23:58.842Z,73.52
2016-09-12T03:24:39.591Z,73.52
2016-09-12T03:25:20.404Z,73.8
2016-09-12T03:26:01.272Z,74
2016-09-12T03:26:42.048Z,73.52
2016-09-12T03:27:22.839Z,73.42
2016-09-12T03:28:03.631Z,73.71
2016-09-12T03:28:44.388Z,73.22
2016-09-12T03:29:25.082Z,73.61
2016-09-12T03:30:05.895Z,73.52
2016-09-12T03:30:46.694Z,73.32
2016-09-12T03:31:27.449Z,73.86
2016-09-12T03:32:08.243Z,73.71
2016-09-12T03:32:49.070Z,73.61
2016-09-12T03:33:29.890Z,73.71
2016-09-12T03:34:10.713Z,73.86
2016-09-12T03:34:51.479Z,73.71
2016-09-12T03:35:32.213Z,73.86
2016-09-12T03:36:12.995Z,73.8
2016-09-12T03:36:53.889Z,73.32
2016-09-12T03:37:34.584Z,73.61
2016-09-12T03:38:15.384Z,73.61
2016-09-12T03:38:56.094Z,73.8
2016-09-12T03:39:36.878Z,73.03
2016-09-12T03:40:17.669Z,73.32
2016-09-12T03:40:58.405Z,73.13
2016-09-12T03:41:39.117Z,73.61
2016-09-12T03:42:19.912Z,73.32
2016-09-12T03:43:00.687Z,73.71
2016-09-12T03:43:41.474Z,73.42
2016-09-12T03:44:22.225Z,73.22
2016-09-12T03:45:02.956Z,73.61
2016-09-12T03:45:43.678Z,73.52
2016-09-12T03:46:24.488Z,73.8
2016-09-12T03:47:05.424Z,73.32
2016-09-12T03:47:46.183Z,73.13
2016-09-12T03:48:26.970Z,73.71
2016-09-12T03:49:07.736Z,73.8
2016-09-12T03:49:48.454Z,73.8
2016-09-12T03:50:29.206Z,73.52
2016-09-12T03:51:09.965Z,73.22
2016-09-12T03:51:50.689Z,73.42
2016-09-12T03:52:31.755Z,73.52
2016-09-12T03:53:12.547Z,73.22
2016-09-12T03:53:53.302Z,73.52
2016-09-12T03:54:34.096Z,73.32
2016-09-12T03:55:14.968Z,73.42
2016-09-12T03:55:55.698Z,73.13
2016-09-12T03:56:36.562Z,73.71
2016-09-12T03:57:17.353Z,73.22
2016-09-12T03:57:58.106Z,73.61
2016-09-12T03:58:39.185Z,73.13
2016-09-12T03:59:19.991Z,73.13
2016-09-12T04:00:00.906Z,73.22
2016-09-12T04:00:41.482Z,73.77
2016-09-12T04:01:22.279Z,73.13
2016-09-12T04:02:03.031Z,73.09
2016-09-12T04:02:44.276Z,73.52
2016-09-12T04:03:24.976Z,73.71
2016-09-12T04:04:05.783Z,73.67
2016-09-12T04:04:46.592Z,73.71
2016-09-12T04:05:28.071Z,73.58
2016-09-12T04:06:08.831Z,73.71
2016-09-12T04:06:49.577Z,73.71
2016-09-12T04:07:30.329Z,73.67
2016-09-12T04:08:11.083Z,73.22
2016-09-12T04:08:51.868Z,73.32
2016-09-12T04:09:32.649Z,73.32
2016-09-12T04:10:13.361Z,73.13
2016-09-12T04:10:55.215Z,72.93
2016-09-12T04:11:35.960Z,72.99
2016-09-12T04:12:16.750Z,73.28
2016-09-12T04:12:57.482Z,73.42
2016-09-12T04:13:38.267Z,73.58
2016-09-12T04:14:19.062Z,73.58
2016-09-12T04:14:59.809Z,73.77
2016-09-12T04:15:41.114Z,73.48
2016-09-12T04:16:21.855Z,73.86
2016-09-12T04:17:02.586Z,73.48
2016-09-12T04:17:44.177Z,73.48
2016-09-12T04:18:24.355Z,73.58
2016-09-12T04:19:05.168Z,73.58
2016-09-12T04:19:45.870Z,73.38
2016-09-12T04:20:26.654Z,73.58
2016-09-12T04:21:07.416Z,73.28
2016-09-12T04:21:48.170Z,73.77
2016-09-12T04:22:28.957Z,73.96
2016-09-12T04:23:09.848Z,73.86
2016-09-12T04:23:50.592Z,73.58
2016-09-12T04:24:31.423Z,73.77
2016-09-12T04:25:12.292Z,73.38
2016-09-12T04:25:53.088Z,73.77
2016-09-12T04:26:33.817Z,73.67
2016-09-12T04:27:14.686Z,73.48
2016-09-12T04:27:55.411Z,73.48
2016-09-12T04:28:36.141Z,73.38
2016-09-12T04:29:16.896Z,73.86
2016-09-12T04:29:57.626Z,73.38
2016-09-12T04:30:38.419Z,73.67
2016-09-12T04:31:19.168Z,73.67
2016-09-12T04:31:59.941Z,73.67
2016-09-12T04:32:40.694Z,73.58
2016-09-12T04:33:21.449Z,73.38
2016-09-12T04:34:02.167Z,73.48
2016-09-12T04:34:44.472Z,73.96
2016-09-12T04:35:25.241Z,73.67
2016-09-12T04:36:06.007Z,73.77
2016-09-12T04:36:46.751Z,73.38
2016-09-12T04:37:27.575Z,73.38
2016-09-12T04:38:08.312Z,72.99
2016-09-12T04:38:49.088Z,73.58
2016-09-12T04:39:29.959Z,73.58
2016-09-12T04:40:10.745Z,73.67
2016-09-12T04:40:51.513Z,73.48
2016-09-12T04:41:32.280Z,73.09
2016-09-12T04:42:12.990Z,73.86
2016-09-12T04:42:53.726Z,73.48
2016-09-12T04:43:34.510Z,73.58
2016-09-12T04:44:15.273Z,73.58
2016-09-12T04:44:56.022Z,73.38
2016-09-12T04:45:36.882Z,73.28
2016-09-12T04:46:17.732Z,73.28
2016-09-12T04:46:58.503Z,73.28
2016-09-12T04:47:39.262Z,73.38
2016-09-12T04:48:20.014Z,73.58
2016-09-12T04:49:00.757Z,73.67
2016-09-12T04:49:41.623Z,73.58
2016-09-12T04:50:22.564Z,73.58
2016-09-12T04:51:03.335Z,73.67
2016-09-12T04:51:44.095Z,73.58
2016-09-12T04:52:24.849Z,73.48
2016-09-12T04:53:05.787Z,73.58
2016-09-12T04:53:46.637Z,73.19
2016-09-12T04:54:27.419Z,73.48
2016-09-12T04:55:08.350Z,73.67
2016-09-12T04:55:49.083Z,73.86
2016-09-12T04:56:29.781Z,73.48
2016-09-12T04:57:10.823Z,73.86
2016-09-12T04:57:51.652Z,73.48
2016-09-12T04:58:32.411Z,73.58
2016-09-12T04:59:13.142Z,73.58
2016-09-12T04:59:53.906Z,73.38
2016-09-12T05:00:34.711Z,73.48
2016-09-12T05:01:15.528Z,73.38
2016-09-12T05:01:56.339Z,73.58
2016-09-12T05:02:37.162Z,73.48
2016-09-12T05:03:17.900Z,73.38
2016-09-12T05:03:58.712Z,73.38
2016-09-12T05:04:39.570Z,73.48
2016-09-12T05:05:20.267Z,73.38
2016-09-12T05:06:01.134Z,73.48
2016-09-12T05:06:41.855Z,73.67
2016-09-12T05:07:22.595Z,72.99
2016-09-12T05:08:03.444Z,73.19
2016-09-12T05:08:44.156Z,73.19
2016-09-12T05:09:24.987Z,72.99
2016-09-12T05:10:05.771Z,72.99
2016-09-12T05:10:46.520Z,73.48
2016-09-12T05:11:27.318Z,73.58
2016-09-12T05:12:08.091Z,73.38
2016-09-12T05:12:48.859Z,73.38
2016-09-12T05:13:29.723Z,73.58
2016-09-12T05:14:10.472Z,73.48
2016-09-12T05:14:51.288Z,73.77
2016-09-12T05:15:32.840Z,73.86
2016-09-12T05:16:13.583Z,73.86
2016-09-12T05:16:54.369Z,73.67
2016-09-12T05:17:35.152Z,73.58
2016-09-12T05:18:15.906Z,73.67
2016-09-12T05:18:56.861Z,73.67
2016-09-12T05:19:37.595Z,73.48
2016-09-12T05:20:18.350Z,73.86
2016-09-12T05:20:59.121Z,73.67
2016-09-12T05:21:39.912Z,73.38
2016-09-12T05:22:20.607Z,73.67
2016-09-12T05:23:01.349Z,73.96
2016-09-12T05:23:42.140Z,73.67
2016-09-12T05:24:22.900Z,73.38
2016-09-12T05:25:03.677Z,73.38
2016-09-12T05:25:44.415Z,73.58
2016-09-12T05:26:25.175Z,73.58
2016-09-12T05:27:06.112Z,73.86
2016-09-12T05:27:46.861Z,73.48
2016-09-12T05:28:27.592Z,73.58
2016-09-12T05:29:08.327Z,74.06
2016-09-12T05:29:49.047Z,74.16
2016-09-12T05:30:30.324Z,74.06
2016-09-12T05:31:11.131Z,73.67
2016-09-12T05:31:51.968Z,73.38
2016-09-12T05:32:32.764Z,74.16
2016-09-12T05:33:13.521Z,74.06
2016-09-12T05:33:54.288Z,73.67
2016-09-12T05:34:35.070Z,73.96
2016-09-12T05:35:57.028Z,74.06
2016-09-12T05:36:38.183Z,73.77
2016-09-12T05:37:19.047Z,73.77
2016-09-12T05:37:59.883Z,73.67
2016-09-12T05:38:40.620Z,73.77
2016-09-12T05:39:21.374Z,73.58
2016-09-12T05:40:02.273Z,73.67
2016-09-12T05:40:43.275Z,73.77
2016-09-12T05:41:24.199Z,73.67
2016-09-12T05:42:04.837Z,73.58
2016-09-12T05:42:45.601Z,73.77
2016-09-12T05:43:26.389Z,73.86
2016-09-12T05:44:08.380Z,73.67
2016-09-12T05:44:49.497Z,73.67
2016-09-12T05:45:30.562Z,73.77
2016-09-12T05:46:12.569Z,73.58
2016-09-12T05:46:53.603Z,73.67
2016-09-12T05:47:33.544Z,73.58
2016-09-12T05:48:14.372Z,73.86
2016-09-12T05:48:55.143Z,73.58
2016-09-12T05:49:35.907Z,73.48
2016-09-12T05:50:16.655Z,73.86
2016-09-12T05:50:57.527Z,73.67
2016-09-12T05:51:38.378Z,73.96
2016-09-12T05:52:19.267Z,73.48
2016-09-12T05:53:00.089Z,73.38
2016-09-12T05:53:40.806Z,73.67
2016-09-12T05:54:21.591Z,73.77
2016-09-12T05:55:03.852Z,73.48
2016-09-12T05:55:43.429Z,73.38
2016-09-12T05:56:24.312Z,73.28
2016-09-12T05:57:05.080Z,73.38
2016-09-12T05:57:45.833Z,73.58
2016-09-12T05:58:27.071Z,73.67
2016-09-12T05:59:07.783Z,73.67
2016-09-12T05:59:48.586Z,72.99
2016-09-12T06:00:29.358Z,73.58
2016-09-12T06:01:10.200Z,73.67
2016-09-12T06:01:51.171Z,73.77
2016-09-12T06:02:31.992Z,72.99
2016-09-12T06:03:12.765Z,72.99
2016-09-12T06:03:53.545Z,73.28
2016-09-12T06:04:34.645Z,73.09
2016-09-12T06:05:19.923Z,72.8
2016-09-12T06:05:56.463Z,73.38
2016-09-12T06:06:37.253Z,73.09
2016-09-12T06:07:18.250Z,72.71
2016-09-12T06:07:59.186Z,73.09
2016-09-12T06:08:40.032Z,72.99
2016-09-12T06:09:20.844Z,73.28
2016-09-12T06:11:16.681Z,73.48
2016-09-12T06:11:57.793Z,73.09
2016-09-12T06:12:41.544Z,73.48
2016-09-12T06:13:24.325Z,72.89
2016-09-12T06:14:07.623Z,72.89
2016-09-12T06:14:48.344Z,72.89
2016-09-12T06:15:30.243Z,73.38
2016-09-12T06:16:11.054Z,73.09
2016-09-12T06:16:51.918Z,73.48
2016-09-12T06:17:32.691Z,72.8
2016-09-12T06:18:13.398Z,73.38
2016-09-12T06:18:55.702Z,72.99
2016-09-12T06:19:36.912Z,73.09
2016-09-12T06:20:25.255Z,72.8
2016-09-12T06:21:12.444Z,72.99
2016-09-12T06:23:06.897Z,72.8
2016-09-12T06:25:37.564Z,73.38
2016-09-12T06:26:18.410Z,72.8
2016-09-12T06:26:59.145Z,73.22
2016-09-12T06:27:40.348Z,72.71
2016-09-12T06:28:21.083Z,73.42
2016-09-12T06:29:01.863Z,73.13
2016-09-12T06:29:42.634Z,73.13
2016-09-12T06:30:23.369Z,72.89
2016-09-12T06:31:04.171Z,72.71
2016-09-12T06:31:44.987Z,72.8
2016-09-12T06:32:25.745Z,73.48
2016-09-12T06:33:06.495Z,73.28
2016-09-12T06:33:47.274Z,73.28
2016-09-12T06:34:28.011Z,73.19
2016-09-12T06:35:08.766Z,73.77
2016-09-12T06:35:49.519Z,73.67
2016-09-12T06:36:30.330Z,73.58
2016-09-12T06:37:11.095Z,73.67
2016-09-12T06:37:51.889Z,73.67
2016-09-12T06:38:32.643Z,72.99
2016-09-12T06:39:13.418Z,73.48
2016-09-12T06:39:54.262Z,73.58
2016-09-12T06:40:38.024Z,73.67
2016-09-12T06:42:10.828Z,73.38
2016-09-12T06:58:57.324Z,73.52
2016-09-12T07:03:26.883Z,73.61
2016-09-12T07:10:40.358Z,74.13
